sensor_id;sensor_type;location;lat;lon;timestamp;P1;durP1;ratioP1;P2;durP2;ratioP2
73150;SDS011;61354;50.758;6.106;2024-02-04T00:01:39;1.42;;;0.90;;
73150;SDS011;61354;50.758;6.106;2024-02-04T00:04:23;2.20;;;1.00;;
73150;SDS011;61354;50.758;6.106;2024-02-04T00:07:07;2.40;;;1.15;;
73150;SDS011;61354;50.758;6.106;2024-02-04T00:09:51;1.80;;;1.30;;
73150;SDS011;61354;50.758;6.106;2024-02-04T00:12:35;3.72;;;1.30;;
73150;SDS011;61354;50.758;6.106;2024-02-04T00:15:19;1.92;;;1.00;;
73150;SDS011;61354;50.758;6.106;2024-02-04T00:18:03;2.13;;;1.27;;
73150;SDS011;61354;50.758;6.106;2024-02-04T00:20:47;2.38;;;1.10;;
73150;SDS011;61354;50.758;6.106;2024-02-04T00:23:31;2.20;;;1.25;;
73150;SDS011;61354;50.758;6.106;2024-02-04T00:26:15;1.67;;;1.05;;
73150;SDS011;61354;50.758;6.106;2024-02-04T00:28:59;2.53;;;1.23;;
73150;SDS011;61354;50.758;6.106;2024-02-04T00:31:43;1.73;;;1.10;;
73150;SDS011;61354;50.758;6.106;2024-02-04T00:34:27;1.88;;;1.13;;
73150;SDS011;61354;50.758;6.106;2024-02-04T00:37:11;1.50;;;0.93;;
73150;SDS011;61354;50.758;6.106;2024-02-04T00:39:55;1.33;;;1.08;;
73150;SDS011;61354;50.758;6.106;2024-02-04T00:42:39;1.88;;;1.00;;
73150;SDS011;61354;50.758;6.106;2024-02-04T00:45:23;1.20;;;0.85;;
73150;SDS011;61354;50.758;6.106;2024-02-04T00:48:07;0.93;;;0.80;;
73150;SDS011;61354;50.758;6.106;2024-02-04T00:50:51;1.17;;;0.80;;
73150;SDS011;61354;50.758;6.106;2024-02-04T00:53:35;1.48;;;0.80;;
73150;SDS011;61354;50.758;6.106;2024-02-04T00:56:19;1.10;;;0.75;;
73150;SDS011;61354;50.758;6.106;2024-02-04T00:59:03;1.02;;;0.63;;
73150;SDS011;61354;50.758;6.106;2024-02-04T01:01:47;1.13;;;0.70;;
73150;SDS011;61354;50.758;6.106;2024-02-04T01:04:31;0.45;;;0.40;;
73150;SDS011;61354;50.758;6.106;2024-02-04T01:07:14;1.33;;;0.82;;
73150;SDS011;61354;50.758;6.106;2024-02-04T01:09:58;0.22;;;0.22;;
73150;SDS011;61354;50.758;6.106;2024-02-04T01:12:42;0.90;;;0.52;;
73150;SDS011;61354;50.758;6.106;2024-02-04T01:15:26;0.50;;;0.43;;
73150;SDS011;61354;50.758;6.106;2024-02-04T01:18:10;0.57;;;0.57;;
73150;SDS011;61354;50.758;6.106;2024-02-04T01:20:54;0.70;;;0.50;;
73150;SDS011;61354;50.758;6.106;2024-02-04T01:23:38;0.82;;;0.50;;
73150;SDS011;61354;50.758;6.106;2024-02-04T01:26:22;0.85;;;0.32;;
73150;SDS011;61354;50.758;6.106;2024-02-04T01:29:08;0.80;;;0.70;;
73150;SDS011;61354;50.758;6.106;2024-02-04T01:31:52;1.33;;;0.80;;
73150;SDS011;61354;50.758;6.106;2024-02-04T01:34:36;1.08;;;0.77;;
73150;SDS011;61354;50.758;6.106;2024-02-04T01:37:20;1.17;;;0.77;;
73150;SDS011;61354;50.758;6.106;2024-02-04T01:40:04;0.68;;;0.60;;
73150;SDS011;61354;50.758;6.106;2024-02-04T01:42:49;1.63;;;0.80;;
73150;SDS011;61354;50.758;6.106;2024-02-04T01:45:33;0.70;;;0.68;;
73150;SDS011;61354;50.758;6.106;2024-02-04T01:48:17;1.13;;;0.63;;
73150;SDS011;61354;50.758;6.106;2024-02-04T01:51:02;1.75;;;0.82;;
73150;SDS011;61354;50.758;6.106;2024-02-04T01:53:48;0.75;;;0.60;;
73150;SDS011;61354;50.758;6.106;2024-02-04T01:56:33;0.98;;;0.73;;
73150;SDS011;61354;50.758;6.106;2024-02-04T01:59:22;0.82;;;0.60;;
73150;SDS011;61354;50.758;6.106;2024-02-04T02:02:11;0.88;;;0.68;;
73150;SDS011;61354;50.758;6.106;2024-02-04T02:04:56;1.98;;;1.17;;
73150;SDS011;61354;50.758;6.106;2024-02-04T02:07:40;1.30;;;1.10;;
73150;SDS011;61354;50.758;6.106;2024-02-04T02:10:25;2.10;;;1.20;;
73150;SDS011;61354;50.758;6.106;2024-02-04T02:13:14;2.13;;;1.20;;
73150;SDS011;61354;50.758;6.106;2024-02-04T02:16:11;1.17;;;0.82;;
73150;SDS011;61354;50.758;6.106;2024-02-04T02:19:28;1.58;;;0.90;;
73150;SDS011;61354;50.758;6.106;2024-02-04T02:22:29;1.23;;;1.00;;
73150;SDS011;61354;50.758;6.106;2024-02-04T02:25:16;2.72;;;1.20;;
73150;SDS011;61354;50.758;6.106;2024-02-04T02:28:03;1.40;;;0.90;;
73150;SDS011;61354;50.758;6.106;2024-02-04T02:30:47;1.63;;;1.10;;
73150;SDS011;61354;50.758;6.106;2024-02-04T02:33:31;1.35;;;0.90;;
73150;SDS011;61354;50.758;6.106;2024-02-04T02:36:17;1.77;;;1.00;;
73150;SDS011;61354;50.758;6.106;2024-02-04T02:39:08;1.83;;;1.48;;
73150;SDS011;61354;50.758;6.106;2024-02-04T02:41:55;1.45;;;0.98;;
73150;SDS011;61354;50.758;6.106;2024-02-04T02:44:42;1.27;;;0.90;;
73150;SDS011;61354;50.758;6.106;2024-02-04T02:47:28;2.03;;;1.00;;
73150;SDS011;61354;50.758;6.106;2024-02-04T02:50:13;1.58;;;0.82;;
73150;SDS011;61354;50.758;6.106;2024-02-04T02:52:57;1.73;;;1.10;;
73150;SDS011;61354;50.758;6.106;2024-02-04T02:55:41;1.77;;;0.93;;
73150;SDS011;61354;50.758;6.106;2024-02-04T02:58:25;1.48;;;0.88;;
73150;SDS011;61354;50.758;6.106;2024-02-04T03:01:09;1.23;;;0.82;;
73150;SDS011;61354;50.758;6.106;2024-02-04T03:03:53;1.85;;;1.13;;
73150;SDS011;61354;50.758;6.106;2024-02-04T03:06:37;1.70;;;1.02;;
73150;SDS011;61354;50.758;6.106;2024-02-04T03:09:21;1.50;;;0.90;;
73150;SDS011;61354;50.758;6.106;2024-02-04T03:12:05;2.03;;;1.02;;
73150;SDS011;61354;50.758;6.106;2024-02-04T03:14:49;1.77;;;0.98;;
73150;SDS011;61354;50.758;6.106;2024-02-04T03:17:33;2.13;;;1.10;;
73150;SDS011;61354;50.758;6.106;2024-02-04T03:20:17;3.10;;;1.20;;
73150;SDS011;61354;50.758;6.106;2024-02-04T03:23:01;1.45;;;0.95;;
73150;SDS011;61354;50.758;6.106;2024-02-04T03:25:45;1.63;;;1.15;;
73150;SDS011;61354;50.758;6.106;2024-02-04T03:28:29;1.05;;;0.70;;
73150;SDS011;61354;50.758;6.106;2024-02-04T03:31:20;2.15;;;1.15;;
73150;SDS011;61354;50.758;6.106;2024-02-04T03:34:04;2.05;;;1.13;;
73150;SDS011;61354;50.758;6.106;2024-02-04T03:36:48;2.13;;;1.38;;
73150;SDS011;61354;50.758;6.106;2024-02-04T03:39:32;2.85;;;1.33;;
73150;SDS011;61354;50.758;6.106;2024-02-04T03:42:16;3.17;;;1.20;;
73150;SDS011;61354;50.758;6.106;2024-02-04T03:45:02;1.95;;;1.20;;
73150;SDS011;61354;50.758;6.106;2024-02-04T03:47:47;1.77;;;1.08;;
73150;SDS011;61354;50.758;6.106;2024-02-04T03:50:31;2.30;;;1.10;;
73150;SDS011;61354;50.758;6.106;2024-02-04T03:53:15;2.42;;;1.30;;
73150;SDS011;61354;50.758;6.106;2024-02-04T03:55:59;2.35;;;1.23;;
73150;SDS011;61354;50.758;6.106;2024-02-04T03:58:43;1.45;;;0.90;;
73150;SDS011;61354;50.758;6.106;2024-02-04T04:01:27;2.47;;;1.42;;
73150;SDS011;61354;50.758;6.106;2024-02-04T04:04:11;2.03;;;1.17;;
73150;SDS011;61354;50.758;6.106;2024-02-04T04:06:55;2.90;;;1.50;;
73150;SDS011;61354;50.758;6.106;2024-02-04T04:09:39;2.50;;;1.48;;
73150;SDS011;61354;50.758;6.106;2024-02-04T04:12:23;2.35;;;1.23;;
73150;SDS011;61354;50.758;6.106;2024-02-04T04:15:07;4.15;;;2.15;;
73150;SDS011;61354;50.758;6.106;2024-02-04T04:17:51;2.90;;;1.55;;
73150;SDS011;61354;50.758;6.106;2024-02-04T04:20:35;4.10;;;1.75;;
73150;SDS011;61354;50.758;6.106;2024-02-04T04:23:19;3.17;;;1.60;;
73150;SDS011;61354;50.758;6.106;2024-02-04T04:26:03;2.13;;;1.20;;
73150;SDS011;61354;50.758;6.106;2024-02-04T04:28:47;2.58;;;1.33;;
73150;SDS011;61354;50.758;6.106;2024-02-04T04:31:30;2.97;;;1.88;;
73150;SDS011;61354;50.758;6.106;2024-02-04T04:34:14;3.10;;;1.40;;
73150;SDS011;61354;50.758;6.106;2024-02-04T04:36:58;2.63;;;1.40;;
73150;SDS011;61354;50.758;6.106;2024-02-04T04:39:42;2.83;;;1.35;;
73150;SDS011;61354;50.758;6.106;2024-02-04T04:42:26;3.67;;;1.73;;
73150;SDS011;61354;50.758;6.106;2024-02-04T04:45:10;3.10;;;1.70;;
73150;SDS011;61354;50.758;6.106;2024-02-04T04:47:54;4.95;;;1.88;;
73150;SDS011;61354;50.758;6.106;2024-02-04T04:50:38;3.03;;;1.70;;
73150;SDS011;61354;50.758;6.106;2024-02-04T04:53:22;4.90;;;2.00;;
73150;SDS011;61354;50.758;6.106;2024-02-04T04:56:06;3.28;;;1.88;;
73150;SDS011;61354;50.758;6.106;2024-02-04T04:58:50;4.70;;;1.80;;
73150;SDS011;61354;50.758;6.106;2024-02-04T05:01:34;4.45;;;1.80;;
73150;SDS011;61354;50.758;6.106;2024-02-04T05:04:18;4.07;;;1.80;;
73150;SDS011;61354;50.758;6.106;2024-02-04T05:07:02;2.55;;;1.30;;
73150;SDS011;61354;50.758;6.106;2024-02-04T05:09:46;2.20;;;1.30;;
73150;SDS011;61354;50.758;6.106;2024-02-04T05:12:32;2.58;;;1.02;;
73150;SDS011;61354;50.758;6.106;2024-02-04T05:15:17;1.30;;;0.73;;
73150;SDS011;61354;50.758;6.106;2024-02-04T05:18:01;1.73;;;1.00;;
73150;SDS011;61354;50.758;6.106;2024-02-04T05:20:45;1.88;;;0.93;;
73150;SDS011;61354;50.758;6.106;2024-02-04T05:23:28;2.65;;;0.95;;
73150;SDS011;61354;50.758;6.106;2024-02-04T05:26:13;2.05;;;1.00;;
73150;SDS011;61354;50.758;6.106;2024-02-04T05:28:57;1.70;;;1.00;;
73150;SDS011;61354;50.758;6.106;2024-02-04T05:31:41;1.75;;;1.00;;
73150;SDS011;61354;50.758;6.106;2024-02-04T05:34:26;1.65;;;0.98;;
73150;SDS011;61354;50.758;6.106;2024-02-04T05:37:10;1.60;;;1.00;;
73150;SDS011;61354;50.758;6.106;2024-02-04T05:39:53;2.30;;;0.90;;
73150;SDS011;61354;50.758;6.106;2024-02-04T05:42:37;2.53;;;0.80;;
73150;SDS011;61354;50.758;6.106;2024-02-04T05:45:21;1.40;;;0.80;;
73150;SDS011;61354;50.758;6.106;2024-02-04T05:48:05;1.25;;;0.90;;
73150;SDS011;61354;50.758;6.106;2024-02-04T05:50:53;2.60;;;1.20;;
73150;SDS011;61354;50.758;6.106;2024-02-04T05:53:37;1.55;;;0.90;;
73150;SDS011;61354;50.758;6.106;2024-02-04T05:56:21;2.25;;;0.98;;
73150;SDS011;61354;50.758;6.106;2024-02-04T05:59:05;1.75;;;0.80;;
73150;SDS011;61354;50.758;6.106;2024-02-04T06:01:49;1.60;;;0.88;;
73150;SDS011;61354;50.758;6.106;2024-02-04T06:04:32;1.88;;;1.10;;
73150;SDS011;61354;50.758;6.106;2024-02-04T06:07:16;1.30;;;0.85;;
73150;SDS011;61354;50.758;6.106;2024-02-04T06:10:00;1.02;;;0.70;;
73150;SDS011;61354;50.758;6.106;2024-02-04T06:12:47;0.52;;;0.43;;
73150;SDS011;61354;50.758;6.106;2024-02-04T06:15:31;1.73;;;1.00;;
73150;SDS011;61354;50.758;6.106;2024-02-04T06:18:15;0.68;;;0.68;;
73150;SDS011;61354;50.758;6.106;2024-02-04T06:20:59;1.20;;;0.60;;
73150;SDS011;61354;50.758;6.106;2024-02-04T06:23:43;1.63;;;0.73;;
73150;SDS011;61354;50.758;6.106;2024-02-04T06:26:27;0.88;;;0.80;;
73150;SDS011;61354;50.758;6.106;2024-02-04T06:29:11;1.05;;;0.70;;
73150;SDS011;61354;50.758;6.106;2024-02-04T06:31:55;1.70;;;0.90;;
73150;SDS011;61354;50.758;6.106;2024-02-04T06:34:39;0.85;;;0.70;;
73150;SDS011;61354;50.758;6.106;2024-02-04T06:37:23;0.85;;;0.63;;
73150;SDS011;61354;50.758;6.106;2024-02-04T06:40:09;1.25;;;0.82;;
73150;SDS011;61354;50.758;6.106;2024-02-04T06:42:54;0.50;;;0.50;;
73150;SDS011;61354;50.758;6.106;2024-02-04T06:45:38;0.40;;;0.40;;
73150;SDS011;61354;50.758;6.106;2024-02-04T06:48:22;0.63;;;0.63;;
73150;SDS011;61354;50.758;6.106;2024-02-04T06:51:06;0.90;;;0.65;;
73150;SDS011;61354;50.758;6.106;2024-02-04T06:53:50;1.05;;;0.80;;
73150;SDS011;61354;50.758;6.106;2024-02-04T06:56:34;1.48;;;0.82;;
73150;SDS011;61354;50.758;6.106;2024-02-04T06:59:18;1.58;;;0.98;;
73150;SDS011;61354;50.758;6.106;2024-02-04T07:02:02;1.70;;;1.00;;
73150;SDS011;61354;50.758;6.106;2024-02-04T07:04:46;1.27;;;0.75;;
73150;SDS011;61354;50.758;6.106;2024-02-04T07:07:30;1.90;;;0.82;;
73150;SDS011;61354;50.758;6.106;2024-02-04T07:10:14;1.33;;;0.80;;
73150;SDS011;61354;50.758;6.106;2024-02-04T07:12:58;1.83;;;0.90;;
73150;SDS011;61354;50.758;6.106;2024-02-04T07:15:42;0.93;;;0.70;;
73150;SDS011;61354;50.758;6.106;2024-02-04T07:18:26;1.30;;;0.60;;
73150;SDS011;61354;50.758;6.106;2024-02-04T07:21:10;1.35;;;0.90;;
73150;SDS011;61354;50.758;6.106;2024-02-04T07:23:54;1.73;;;0.90;;
73150;SDS011;61354;50.758;6.106;2024-02-04T07:26:38;1.40;;;0.70;;
73150;SDS011;61354;50.758;6.106;2024-02-04T07:29:22;1.38;;;0.95;;
73150;SDS011;61354;50.758;6.106;2024-02-04T07:32:06;1.23;;;0.85;;
73150;SDS011;61354;50.758;6.106;2024-02-04T07:34:50;1.92;;;1.20;;
73150;SDS011;61354;50.758;6.106;2024-02-04T07:37:34;2.40;;;1.30;;
73150;SDS011;61354;50.758;6.106;2024-02-04T07:40:19;2.22;;;1.23;;
73150;SDS011;61354;50.758;6.106;2024-02-04T07:43:02;2.20;;;1.08;;
73150;SDS011;61354;50.758;6.106;2024-02-04T07:45:46;2.13;;;1.08;;
73150;SDS011;61354;50.758;6.106;2024-02-04T07:48:30;2.70;;;1.35;;
73150;SDS011;61354;50.758;6.106;2024-02-04T07:51:15;2.08;;;0.90;;
73150;SDS011;61354;50.758;6.106;2024-02-04T07:53:59;2.65;;;1.25;;
73150;SDS011;61354;50.758;6.106;2024-02-04T07:56:43;1.83;;;1.02;;
73150;SDS011;61354;50.758;6.106;2024-02-04T07:59:26;2.38;;;1.25;;
73150;SDS011;61354;50.758;6.106;2024-02-04T08:02:10;2.60;;;1.50;;
73150;SDS011;61354;50.758;6.106;2024-02-04T08:04:54;1.77;;;1.05;;
73150;SDS011;61354;50.758;6.106;2024-02-04T08:07:38;0.68;;;0.40;;
73150;SDS011;61354;50.758;6.106;2024-02-04T08:10:23;1.20;;;0.70;;
73150;SDS011;61354;50.758;6.106;2024-02-04T08:13:07;1.33;;;0.70;;
73150;SDS011;61354;50.758;6.106;2024-02-04T08:15:51;0.43;;;0.43;;
73150;SDS011;61354;50.758;6.106;2024-02-04T08:18:35;0.50;;;0.50;;
73150;SDS011;61354;50.758;6.106;2024-02-04T08:21:19;0.85;;;0.70;;
73150;SDS011;61354;50.758;6.106;2024-02-04T08:24:03;0.88;;;0.65;;
73150;SDS011;61354;50.758;6.106;2024-02-04T08:26:47;0.93;;;0.70;;
73150;SDS011;61354;50.758;6.106;2024-02-04T08:29:31;1.35;;;0.88;;
73150;SDS011;61354;50.758;6.106;2024-02-04T08:32:15;1.23;;;0.63;;
73150;SDS011;61354;50.758;6.106;2024-02-04T08:34:58;0.73;;;0.73;;
73150;SDS011;61354;50.758;6.106;2024-02-04T08:37:42;1.13;;;0.60;;
73150;SDS011;61354;50.758;6.106;2024-02-04T08:40:26;2.00;;;0.90;;
73150;SDS011;61354;50.758;6.106;2024-02-04T08:43:10;0.80;;;0.80;;
73150;SDS011;61354;50.758;6.106;2024-02-04T08:45:54;0.93;;;0.70;;
73150;SDS011;61354;50.758;6.106;2024-02-04T08:48:38;1.15;;;0.80;;
73150;SDS011;61354;50.758;6.106;2024-02-04T08:51:22;0.60;;;0.60;;
73150;SDS011;61354;50.758;6.106;2024-02-04T08:54:06;1.40;;;0.70;;
73150;SDS011;61354;50.758;6.106;2024-02-04T08:56:50;0.57;;;0.57;;
73150;SDS011;61354;50.758;6.106;2024-02-04T08:59:34;1.02;;;0.73;;
73150;SDS011;61354;50.758;6.106;2024-02-04T09:02:18;0.88;;;0.68;;
73150;SDS011;61354;50.758;6.106;2024-02-04T09:05:03;1.20;;;0.90;;
73150;SDS011;61354;50.758;6.106;2024-02-04T09:07:51;0.85;;;0.60;;
73150;SDS011;61354;50.758;6.106;2024-02-04T09:10:35;1.08;;;0.85;;
73150;SDS011;61354;50.758;6.106;2024-02-04T09:13:19;0.52;;;0.52;;
73150;SDS011;61354;50.758;6.106;2024-02-04T09:16:03;0.95;;;0.60;;
73150;SDS011;61354;50.758;6.106;2024-02-04T09:18:48;1.05;;;0.70;;
73150;SDS011;61354;50.758;6.106;2024-02-04T09:21:32;1.10;;;0.70;;
73150;SDS011;61354;50.758;6.106;2024-02-04T09:24:16;1.42;;;0.90;;
73150;SDS011;61354;50.758;6.106;2024-02-04T09:27:00;1.67;;;1.00;;
73150;SDS011;61354;50.758;6.106;2024-02-04T09:29:44;1.35;;;0.90;;
73150;SDS011;61354;50.758;6.106;2024-02-04T09:32:28;1.02;;;0.73;;
73150;SDS011;61354;50.758;6.106;2024-02-04T09:35:12;2.03;;;0.90;;
73150;SDS011;61354;50.758;6.106;2024-02-04T09:37:56;0.98;;;0.73;;
73150;SDS011;61354;50.758;6.106;2024-02-04T09:40:40;1.00;;;0.82;;
73150;SDS011;61354;50.758;6.106;2024-02-04T09:43:25;0.90;;;0.73;;
73150;SDS011;61354;50.758;6.106;2024-02-04T09:46:10;0.30;;;0.30;;
73150;SDS011;61354;50.758;6.106;2024-02-04T09:48:55;1.10;;;0.75;;
73150;SDS011;61354;50.758;6.106;2024-02-04T09:51:39;0.50;;;0.47;;
73150;SDS011;61354;50.758;6.106;2024-02-04T09:54:24;0.80;;;0.60;;
73150;SDS011;61354;50.758;6.106;2024-02-04T09:57:09;0.63;;;0.60;;
73150;SDS011;61354;50.758;6.106;2024-02-04T09:59:53;0.85;;;0.60;;
73150;SDS011;61354;50.758;6.106;2024-02-04T10:02:37;1.10;;;0.73;;
73150;SDS011;61354;50.758;6.106;2024-02-04T10:05:22;0.90;;;0.60;;
73150;SDS011;61354;50.758;6.106;2024-02-04T10:08:06;0.63;;;0.50;;
73150;SDS011;61354;50.758;6.106;2024-02-04T10:10:50;0.30;;;0.30;;
73150;SDS011;61354;50.758;6.106;2024-02-04T10:16:31;0.47;;;0.47;;
73150;SDS011;61354;50.758;6.106;2024-02-04T10:19:15;0.60;;;0.52;;
73150;SDS011;61354;50.758;6.106;2024-02-04T10:22:02;1.23;;;0.90;;
73150;SDS011;61354;50.758;6.106;2024-02-04T10:24:47;1.00;;;0.57;;
73150;SDS011;61354;50.758;6.106;2024-02-04T10:27:32;0.50;;;0.50;;
73150;SDS011;61354;50.758;6.106;2024-02-04T10:30:18;0.52;;;0.52;;
73150;SDS011;61354;50.758;6.106;2024-02-04T10:33:04;1.83;;;0.85;;
73150;SDS011;61354;50.758;6.106;2024-02-04T10:35:48;0.68;;;0.60;;
73150;SDS011;61354;50.758;6.106;2024-02-04T10:38:32;1.77;;;0.90;;
73150;SDS011;61354;50.758;6.106;2024-02-04T10:41:17;2.40;;;0.95;;
73150;SDS011;61354;50.758;6.106;2024-02-04T10:44:02;2.30;;;1.17;;
73150;SDS011;61354;50.758;6.106;2024-02-04T10:46:48;1.65;;;1.00;;
73150;SDS011;61354;50.758;6.106;2024-02-04T10:49:33;3.15;;;1.15;;
73150;SDS011;61354;50.758;6.106;2024-02-04T10:52:17;2.47;;;0.90;;
73150;SDS011;61354;50.758;6.106;2024-02-04T10:55:02;1.95;;;1.00;;
73150;SDS011;61354;50.758;6.106;2024-02-04T10:57:50;2.10;;;1.10;;
73150;SDS011;61354;50.758;6.106;2024-02-04T11:00:34;2.60;;;1.40;;
73150;SDS011;61354;50.758;6.106;2024-02-04T11:03:18;1.88;;;1.10;;
73150;SDS011;61354;50.758;6.106;2024-02-04T11:06:02;2.28;;;1.45;;
73150;SDS011;61354;50.758;6.106;2024-02-04T11:08:47;2.05;;;1.15;;
73150;SDS011;61354;50.758;6.106;2024-02-04T11:11:31;1.80;;;1.25;;
73150;SDS011;61354;50.758;6.106;2024-02-04T11:14:16;3.03;;;1.30;;
73150;SDS011;61354;50.758;6.106;2024-02-04T11:20:14;1.63;;;0.98;;
73150;SDS011;61354;50.758;6.106;2024-02-04T11:26:08;2.10;;;1.20;;
73150;SDS011;61354;50.758;6.106;2024-02-04T11:28:54;1.83;;;1.20;;
73150;SDS011;61354;50.758;6.106;2024-02-04T11:31:38;2.03;;;1.40;;
73150;SDS011;61354;50.758;6.106;2024-02-04T11:34:26;1.70;;;1.23;;
73150;SDS011;61354;50.758;6.106;2024-02-04T11:37:15;3.63;;;1.30;;
73150;SDS011;61354;50.758;6.106;2024-02-04T11:40:00;1.60;;;1.13;;
73150;SDS011;61354;50.758;6.106;2024-02-04T11:42:44;1.35;;;1.08;;
73150;SDS011;61354;50.758;6.106;2024-02-04T11:45:29;1.23;;;0.93;;
73150;SDS011;61354;50.758;6.106;2024-02-04T11:48:13;2.40;;;1.30;;
73150;SDS011;61354;50.758;6.106;2024-02-04T11:50:57;1.90;;;1.02;;
73150;SDS011;61354;50.758;6.106;2024-02-04T11:53:43;2.60;;;1.40;;
73150;SDS011;61354;50.758;6.106;2024-02-04T11:56:28;1.77;;;1.20;;
73150;SDS011;61354;50.758;6.106;2024-02-04T11:59:12;2.10;;;1.20;;
73150;SDS011;61354;50.758;6.106;2024-02-04T12:01:57;2.60;;;1.17;;
73150;SDS011;61354;50.758;6.106;2024-02-04T12:04:49;2.78;;;1.38;;
73150;SDS011;61354;50.758;6.106;2024-02-04T12:07:35;2.33;;;1.45;;
73150;SDS011;61354;50.758;6.106;2024-02-04T12:10:22;3.35;;;1.60;;
73150;SDS011;61354;50.758;6.106;2024-02-04T12:13:06;2.92;;;1.70;;
73150;SDS011;61354;50.758;6.106;2024-02-04T12:15:50;3.03;;;1.98;;
73150;SDS011;61354;50.758;6.106;2024-02-04T12:18:34;3.53;;;2.10;;
73150;SDS011;61354;50.758;6.106;2024-02-04T12:21:18;3.03;;;1.80;;
73150;SDS011;61354;50.758;6.106;2024-02-04T12:24:03;3.10;;;1.85;;
73150;SDS011;61354;50.758;6.106;2024-02-04T12:26:47;3.20;;;2.20;;
73150;SDS011;61354;50.758;6.106;2024-02-04T12:29:31;3.33;;;2.22;;
73150;SDS011;61354;50.758;6.106;2024-02-04T12:32:16;2.92;;;1.90;;
73150;SDS011;61354;50.758;6.106;2024-02-04T12:35:02;3.72;;;1.88;;
73150;SDS011;61354;50.758;6.106;2024-02-04T12:37:53;2.72;;;1.83;;
73150;SDS011;61354;50.758;6.106;2024-02-04T12:40:40;2.60;;;1.70;;
73150;SDS011;61354;50.758;6.106;2024-02-04T12:43:25;2.10;;;1.15;;
73150;SDS011;61354;50.758;6.106;2024-02-04T12:46:09;2.38;;;1.48;;
73150;SDS011;61354;50.758;6.106;2024-02-04T12:51:40;2.50;;;1.48;;
73150;SDS011;61354;50.758;6.106;2024-02-04T12:54:24;2.17;;;1.30;;
73150;SDS011;61354;50.758;6.106;2024-02-04T12:57:08;2.67;;;1.65;;
73150;SDS011;61354;50.758;6.106;2024-02-04T13:00:05;2.70;;;1.20;;
73150;SDS011;61354;50.758;6.106;2024-02-04T13:02:50;2.45;;;1.42;;
73150;SDS011;61354;50.758;6.106;2024-02-04T13:05:34;3.03;;;1.55;;
73150;SDS011;61354;50.758;6.106;2024-02-04T13:08:19;2.75;;;1.70;;
73150;SDS011;61354;50.758;6.106;2024-02-04T13:11:03;2.30;;;1.40;;
73150;SDS011;61354;50.758;6.106;2024-02-04T13:13:48;2.72;;;1.60;;
73150;SDS011;61354;50.758;6.106;2024-02-04T13:16:31;2.15;;;1.48;;
73150;SDS011;61354;50.758;6.106;2024-02-04T13:19:16;1.67;;;1.13;;
73150;SDS011;61354;50.758;6.106;2024-02-04T13:22:00;2.40;;;1.40;;
73150;SDS011;61354;50.758;6.106;2024-02-04T13:24:44;2.80;;;1.73;;
73150;SDS011;61354;50.758;6.106;2024-02-04T13:27:28;1.50;;;1.13;;
73150;SDS011;61354;50.758;6.106;2024-02-04T13:30:12;1.70;;;1.30;;
73150;SDS011;61354;50.758;6.106;2024-02-04T13:32:57;2.15;;;1.40;;
73150;SDS011;61354;50.758;6.106;2024-02-04T13:35:41;2.20;;;1.35;;
73150;SDS011;61354;50.758;6.106;2024-02-04T13:38:25;2.00;;;1.35;;
73150;SDS011;61354;50.758;6.106;2024-02-04T13:41:09;1.70;;;1.20;;
73150;SDS011;61354;50.758;6.106;2024-02-04T13:43:53;1.65;;;1.17;;
73150;SDS011;61354;50.758;6.106;2024-02-04T13:46:37;2.15;;;1.40;;
73150;SDS011;61354;50.758;6.106;2024-02-04T13:49:25;2.30;;;1.40;;
73150;SDS011;61354;50.758;6.106;2024-02-04T13:52:09;1.45;;;0.90;;
73150;SDS011;61354;50.758;6.106;2024-02-04T13:54:53;2.33;;;1.20;;
73150;SDS011;61354;50.758;6.106;2024-02-04T13:57:37;1.27;;;1.10;;
73150;SDS011;61354;50.758;6.106;2024-02-04T14:00:21;1.67;;;1.10;;
73150;SDS011;61354;50.758;6.106;2024-02-04T14:03:05;1.40;;;1.10;;
73150;SDS011;61354;50.758;6.106;2024-02-04T14:05:50;1.63;;;1.23;;
73150;SDS011;61354;50.758;6.106;2024-02-04T14:08:35;2.08;;;1.25;;
73150;SDS011;61354;50.758;6.106;2024-02-04T14:11:19;2.30;;;1.23;;
73150;SDS011;61354;50.758;6.106;2024-02-04T14:14:03;1.92;;;1.30;;
73150;SDS011;61354;50.758;6.106;2024-02-04T14:16:47;1.55;;;0.82;;
73150;SDS011;61354;50.758;6.106;2024-02-04T14:19:31;1.63;;;1.05;;
73150;SDS011;61354;50.758;6.106;2024-02-04T14:22:15;1.77;;;1.20;;
73150;SDS011;61354;50.758;6.106;2024-02-04T14:25:01;1.70;;;1.00;;
73150;SDS011;61354;50.758;6.106;2024-02-04T14:27:45;1.48;;;1.10;;
73150;SDS011;61354;50.758;6.106;2024-02-04T14:30:29;2.55;;;1.20;;
73150;SDS011;61354;50.758;6.106;2024-02-04T14:33:13;2.15;;;1.30;;
73150;SDS011;61354;50.758;6.106;2024-02-04T14:35:57;1.52;;;1.13;;
73150;SDS011;61354;50.758;6.106;2024-02-04T14:38:41;2.15;;;1.33;;
73150;SDS011;61354;50.758;6.106;2024-02-04T14:41:24;1.25;;;0.98;;
73150;SDS011;61354;50.758;6.106;2024-02-04T14:44:08;2.33;;;1.20;;
73150;SDS011;61354;50.758;6.106;2024-02-04T14:46:53;1.38;;;0.90;;
73150;SDS011;61354;50.758;6.106;2024-02-04T14:49:37;2.70;;;1.08;;
73150;SDS011;61354;50.758;6.106;2024-02-04T14:52:22;1.60;;;1.02;;
73150;SDS011;61354;50.758;6.106;2024-02-04T14:55:06;1.50;;;1.08;;
73150;SDS011;61354;50.758;6.106;2024-02-04T14:57:50;1.25;;;0.90;;
73150;SDS011;61354;50.758;6.106;2024-02-04T15:00:34;1.05;;;0.88;;
73150;SDS011;61354;50.758;6.106;2024-02-04T15:03:18;1.90;;;1.00;;
73150;SDS011;61354;50.758;6.106;2024-02-04T15:06:02;0.82;;;0.82;;
73150;SDS011;61354;50.758;6.106;2024-02-04T15:08:48;1.00;;;0.80;;
73150;SDS011;61354;50.758;6.106;2024-02-04T15:11:32;1.38;;;0.90;;
73150;SDS011;61354;50.758;6.106;2024-02-04T15:14:17;1.33;;;0.85;;
73150;SDS011;61354;50.758;6.106;2024-02-04T15:17:02;1.02;;;0.80;;
73150;SDS011;61354;50.758;6.106;2024-02-04T15:19:46;1.60;;;0.90;;
73150;SDS011;61354;50.758;6.106;2024-02-04T15:22:31;0.77;;;0.73;;
73150;SDS011;61354;50.758;6.106;2024-02-04T15:25:15;0.70;;;0.70;;
73150;SDS011;61354;50.758;6.106;2024-02-04T15:28:01;1.05;;;0.80;;
73150;SDS011;61354;50.758;6.106;2024-02-04T15:30:48;0.95;;;0.63;;
73150;SDS011;61354;50.758;6.106;2024-02-04T15:33:32;1.38;;;0.85;;
73150;SDS011;61354;50.758;6.106;2024-02-04T15:39:58;1.20;;;0.70;;
73150;SDS011;61354;50.758;6.106;2024-02-04T15:42:42;3.05;;;0.98;;
73150;SDS011;61354;50.758;6.106;2024-02-04T15:45:26;0.63;;;0.63;;
73150;SDS011;61354;50.758;6.106;2024-02-04T15:48:10;1.08;;;0.80;;
73150;SDS011;61354;50.758;6.106;2024-02-04T15:50:59;1.92;;;1.00;;
73150;SDS011;61354;50.758;6.106;2024-02-04T15:53:43;0.95;;;0.80;;
73150;SDS011;61354;50.758;6.106;2024-02-04T15:56:28;0.70;;;0.70;;
73150;SDS011;61354;50.758;6.106;2024-02-04T15:59:16;1.05;;;0.70;;
73150;SDS011;61354;50.758;6.106;2024-02-04T16:02:06;0.65;;;0.65;;
73150;SDS011;61354;50.758;6.106;2024-02-04T16:04:53;1.13;;;0.82;;
73150;SDS011;61354;50.758;6.106;2024-02-04T16:07:38;1.40;;;0.90;;
73150;SDS011;61354;50.758;6.106;2024-02-04T16:10:22;0.90;;;0.80;;
73150;SDS011;61354;50.758;6.106;2024-02-04T16:13:07;1.23;;;1.10;;
73150;SDS011;61354;50.758;6.106;2024-02-04T16:15:55;1.27;;;0.90;;
73150;SDS011;61354;50.758;6.106;2024-02-04T16:18:45;1.63;;;1.13;;
73150;SDS011;61354;50.758;6.106;2024-02-04T16:21:29;0.90;;;0.75;;
73150;SDS011;61354;50.758;6.106;2024-02-04T16:24:13;1.77;;;1.20;;
73150;SDS011;61354;50.758;6.106;2024-02-04T16:26:57;2.08;;;1.30;;
73150;SDS011;61354;50.758;6.106;2024-02-04T16:29:41;2.13;;;1.08;;
73150;SDS011;61354;50.758;6.106;2024-02-04T16:32:25;1.27;;;1.15;;
73150;SDS011;61354;50.758;6.106;2024-02-04T16:35:09;1.38;;;1.08;;
73150;SDS011;61354;50.758;6.106;2024-02-04T16:37:53;2.25;;;1.20;;
73150;SDS011;61354;50.758;6.106;2024-02-04T16:40:37;1.75;;;1.10;;
73150;SDS011;61354;50.758;6.106;2024-02-04T16:43:23;0.80;;;0.80;;
73150;SDS011;61354;50.758;6.106;2024-02-04T16:46:07;0.90;;;0.77;;
73150;SDS011;61354;50.758;6.106;2024-02-04T16:48:51;2.22;;;0.98;;